Time;durP1;ratioP1;P1;durP2;ratioP2;P2;SDS_P1;SDS_P2;PMS_P1;PMS_P2;Temp;Humidity;BMP_temperature;BMP_pressure;BME280_temperature;BME280_humidity;BME280_pressure;Samples;Min_cycle;Max_cycle;Signal;HPM_P1;HPM_P2
2022/04/08 00:01:25;;;;;;;;;;;;;;;10.67;68.92;91217.88;2054469;69;20054;-70
2022/04/08 00:03:52;;;;;;;;;;;;;;;10.82;65.37;91210.69;2054630;69;20042;-69
2022/04/08 00:06:18;;;;;;;;;;;;;;;10.99;65.83;91203.53;2053812;69;20461;-70
2022/04/08 00:08:44;;;;;;;;;;;;;;;10.66;68.90;91211.53;2054735;69;20471;-70
2022/04/08 00:11:10;;;;;;;;;;;;;;;10.83;66.10;91212.13;2054787;69;20525;-70
2022/04/08 00:13:35;;;;;;;;;;;;;;;10.74;66.94;91199.13;2055039;69;20051;-70
2022/04/08 00:16:01;;;;;;;;;;;;;;;10.76;67.76;91190.75;2054936;69;20057;-69
2022/04/08 00:18:26;;;;;;;;;;;;;;;10.91;64.71;91184.28;2054334;69;20062;-69
2022/04/08 00:20:51;;;;;;;;;;;;;;;10.89;66.49;91168.00;2054952;69;20061;-69
2022/04/08 00:23:17;;;;;;;;;;;;;;;10.52;68.72;91199.03;2054688;69;20110;-69
2022/04/08 00:25:42;;;;;;;;;;;;;;;10.89;64.22;91193.34;2055042;69;20077;-69
2022/04/08 00:28:08;;;;;;;;;;;;;;;11.01;64.18;91197.97;2054900;69;20046;-70
2022/04/08 00:30:34;;;;;;;;;;;;;;;11.06;65.24;91202.38;2054608;70;20104;-67
2022/04/08 00:32:59;;;;;;;;;;;;;;;10.54;68.50;91213.19;2054073;69;20560;-68
2022/04/08 00:35:25;;;;;;;;;;;;;;;10.72;67.54;91208.22;2055076;70;20430;-68
2022/04/08 00:37:50;;;;;;;;;;;;;;;10.77;68.21;91209.09;2054129;69;20054;-68
2022/04/08 00:40:16;;;;;;;;;;;;;;;10.49;69.37;91225.63;2055202;69;20403;-69
2022/04/08 00:42:43;;;;;;;;;;;;;;;10.59;67.88;91237.28;2055234;69;20051;-69
2022/04/08 00:45:09;;;;;;;;;;;;;;;10.80;65.05;91233.84;2054589;70;20078;-68
2022/04/08 00:47:36;;;;;;;;;;;;;;;10.82;65.05;91222.66;2055110;69;20050;-68
2022/04/08 00:50:06;;;;;;;;;;;;;;;10.66;67.52;91213.63;2054602;69;20486;-69
2022/04/08 00:52:33;;;;;;;;;;;;;;;10.32;70.45;91208.16;2054855;69;20434;-69
2022/04/08 00:54:58;;;;;;;;;;;;;;;10.31;69.96;91197.53;2054995;69;20066;-68
2022/04/08 00:57:24;;;;;;;;;;;;;;;10.60;67.54;91197.25;2054372;70;20054;-68
2022/04/08 00:59:50;;;;;;;;;;;;;;;10.70;65.33;91196.88;2054839;69;20444;-69
2022/04/08 01:02:15;;;;;;;;;;;;;;;10.62;68.30;91188.88;2054684;69;20086;-69
2022/04/08 01:04:41;;;;;;;;;;;;;;;10.75;64.34;91209.72;2054944;69;20053;-69
2022/04/08 01:07:06;;;;;;;;;;;;;;;10.69;69.14;91215.16;2054567;69;20113;-69
2022/04/08 01:09:32;;;;;;;;;;;;;;;10.29;69.74;91214.34;2054689;69;20568;-68
2022/04/08 01:11:58;;;;;;;;;;;;;;;10.36;70.63;91230.84;2054742;69;20529;-69
2022/04/08 01:14:24;;;;;;;;;;;;;;;10.60;67.75;91258.44;2054801;70;20050;-70
2022/04/08 01:16:49;;;;;;;;;;;;;;;10.62;68.94;91250.78;2054753;69;20042;-69
2022/04/08 01:19:15;;;;;;;;;;;;;;;10.60;70.06;91259.16;2054785;69;20415;-69
2022/04/08 01:21:40;;;;;;;;;;;;;;;10.56;67.75;91244.94;2053458;69;20062;-69
2022/04/08 01:24:09;;;;;;;;;;;;;;;10.81;66.86;91257.06;2055165;69;20425;-69
2022/04/08 01:26:34;;;;;;;;;;;;;;;10.71;67.20;91263.06;2057264;69;20046;-68
2022/04/08 01:29:00;;;;;;;;;;;;;;;10.58;67.01;91261.16;2057204;69;20050;-69
2022/04/08 01:31:29;;;;;;;;;;;;;;;10.51;68.21;91271.47;2057630;69;20586;-69
2022/04/08 01:33:55;;;;;;;;;;;;;;;10.56;68.69;91272.34;2058042;69;20050;-69
2022/04/08 01:36:20;;;;;;;;;;;;;;;10.77;66.23;91276.66;2058587;69;20045;-69
2022/04/08 01:38:46;;;;;;;;;;;;;;;10.63;69.10;91265.59;2058155;69;20122;-70
2022/04/08 01:41:11;;;;;;;;;;;;;;;10.54;69.52;91281.44;2058368;69;20046;-69
2022/04/08 01:43:37;;;;;;;;;;;;;;;10.06;72.24;91283.75;2058626;69;20509;-69
2022/04/08 01:46:03;;;;;;;;;;;;;;;10.49;68.47;91279.84;2058392;69;20043;-69
2022/04/08 01:48:28;;;;;;;;;;;;;;;10.53;69.62;91274.34;2058346;69;20050;-69
2022/04/08 01:50:54;;;;;;;;;;;;;;;10.58;69.24;91280.84;2058507;69;20065;-69
2022/04/08 01:53:19;;;;;;;;;;;;;;;10.60;68.83;91281.66;2058376;69;20445;-69
2022/04/08 01:55:44;;;;;;;;;;;;;;;10.66;66.86;91287.50;2058396;69;20049;-69
2022/04/08 01:58:10;;;;;;;;;;;;;;;10.56;67.99;91278.69;2058550;69;20145;-70
2022/04/08 02:00:36;;;;;;;;;;;;;;;10.66;68.60;91267.09;2058634;69;20054;-70
2022/04/08 02:03:02;;;;;;;;;;;;;;;10.60;66.32;91256.34;2058697;69;20050;-70
2022/04/08 02:05:27;;;;;;;;;;;;;;;10.36;68.73;91236.44;2057890;69;20112;-69
2022/04/08 02:07:56;;;;;;;;;;;;;;;10.26;70.62;91238.84;2058191;69;20169;-68
2022/04/08 02:10:21;;;;;;;;;;;;;;;10.25;71.22;91228.97;2058461;69;20137;-69
2022/04/08 02:12:47;;;;;;;;;;;;;;;10.24;69.78;91240.84;2057750;69;20076;-68
2022/04/08 02:15:12;;;;;;;;;;;;;;;10.35;70.14;91251.88;2058439;69;20425;-69
2022/04/08 02:17:38;;;;;;;;;;;;;;;10.46;67.69;91244.56;2058064;69;20418;-69
2022/04/08 02:20:08;;;;;;;;;;;;;;;10.52;67.14;91256.03;2058268;69;20056;-68
2022/04/08 02:22:35;;;;;;;;;;;;;;;10.54;66.99;91241.31;2058484;69;20050;-69
2022/04/08 02:25:01;;;;;;;;;;;;;;;10.41;65.06;91217.63;2058692;69;20515;-69
2022/04/08 02:27:28;;;;;;;;;;;;;;;10.12;69.25;91261.50;2058705;69;20151;-69
2022/04/08 02:29:55;;;;;;;;;;;;;;;10.40;67.58;91261.94;2058807;69;20513;-70
2022/04/08 02:32:24;;;;;;;;;;;;;;;10.65;63.06;91263.56;2058544;69;20057;-70
2022/04/08 02:34:50;;;;;;;;;;;;;;;10.61;64.28;91257.78;2058307;69;20061;-69
2022/04/08 02:37:16;;;;;;;;;;;;;;;10.50;66.78;91266.50;2058750;69;20135;-70
2022/04/08 02:39:41;;;;;;;;;;;;;;;10.66;63.33;91269.91;2058551;69;20065;-69
2022/04/08 02:42:07;;;;;;;;;;;;;;;10.50;67.01;91280.56;2058678;69;20535;-70
2022/04/08 02:44:32;;;;;;;;;;;;;;;10.30;67.24;91278.41;2058811;69;20150;-69
2022/04/08 02:46:58;;;;;;;;;;;;;;;10.28;66.26;91288.84;2058626;69;20057;-70
2022/04/08 02:49:24;;;;;;;;;;;;;;;10.11;67.38;91276.22;2058330;69;20090;-68
2022/04/08 02:51:49;;;;;;;;;;;;;;;10.04;67.60;91271.72;2057695;69;20077;-69
2022/04/08 02:54:15;;;;;;;;;;;;;;;10.12;67.33;91281.19;2058624;69;20093;-70
2022/04/08 02:56:42;;;;;;;;;;;;;;;10.37;64.56;91265.31;2057930;69;20112;-70
2022/04/08 02:59:08;;;;;;;;;;;;;;;10.54;63.94;91261.03;2058458;69;20089;-69
2022/04/08 03:01:33;;;;;;;;;;;;;;;10.60;63.37;91230.28;2058483;69;20042;-69
2022/04/08 03:03:59;;;;;;;;;;;;;;;9.99;67.88;91250.41;2058294;69;20052;-70
2022/04/08 03:06:26;;;;;;;;;;;;;;;10.25;66.48;91225.44;2058384;69;20120;-72
2022/04/08 03:08:51;;;;;;;;;;;;;;;10.09;66.76;91223.44;2058501;69;20147;-67
2022/04/08 03:11:17;;;;;;;;;;;;;;;10.30;65.53;91224.22;2058494;69;20149;-70
2022/04/08 03:13:42;;;;;;;;;;;;;;;10.49;65.61;91223.56;2058852;69;20054;-70
2022/04/08 03:16:08;;;;;;;;;;;;;;;10.39;64.39;91223.88;2058616;69;20490;-71
2022/04/08 03:18:33;;;;;;;;;;;;;;;9.98;65.08;91232.13;2058750;69;20553;-69
2022/04/08 03:20:58;;;;;;;;;;;;;;;9.87;66.98;91219.75;2058603;69;20058;-68
2022/04/08 03:23:24;;;;;;;;;;;;;;;10.29;63.83;91220.69;2058034;69;20057;-68
2022/04/08 03:25:49;;;;;;;;;;;;;;;10.33;64.75;91220.84;2058069;69;20046;-70
2022/04/08 03:28:15;;;;;;;;;;;;;;;10.32;64.10;91233.47;2058726;69;20049;-71
2022/04/08 03:30:40;;;;;;;;;;;;;;;10.19;64.63;91232.25;2058180;69;20042;-70
2022/04/08 03:33:06;;;;;;;;;;;;;;;10.18;64.92;91213.94;2058552;69;20062;-70
2022/04/08 03:35:32;;;;;;;;;;;;;;;10.22;64.58;91221.81;2058549;69;20137;-71
2022/04/08 03:37:57;;;;;;;;;;;;;;;10.05;64.90;91217.66;2058477;69;20101;-70
2022/04/08 03:40:23;;;;;;;;;;;;;;;10.09;65.98;91236.78;2058158;69;20050;-71
2022/04/08 03:42:48;;;;;;;;;;;;;;;10.20;65.62;91241.41;2058550;69;20510;-71
2022/04/08 03:45:14;;;;;;;;;;;;;;;10.29;65.03;91231.22;2058565;69;20117;-71
2022/04/08 03:47:40;;;;;;;;;;;;;;;10.40;65.44;91238.69;2058793;69;20142;-71
2022/04/08 03:50:06;;;;;;;;;;;;;;;10.50;64.21;91253.16;2058533;69;20125;-71
2022/04/08 03:52:34;;;;;;;;;;;;;;;10.39;63.17;91260.47;2058407;69;20132;-70
2022/04/08 03:55:01;;;;;;;;;;;;;;;10.25;64.35;91262.72;2058049;69;20054;-71
2022/04/08 03:57:26;;;;;;;;;;;;;;;10.25;64.06;91254.28;2058477;69;20564;-70
2022/04/08 03:59:52;;;;;;;;;;;;;;;10.35;64.12;91263.13;2058513;69;20058;-70
2022/04/08 04:02:18;;;;;;;;;;;;;;;10.18;64.85;91264.56;2058661;69;20062;-71
2022/04/08 04:04:43;;;;;;;;;;;;;;;9.93;67.27;91268.50;2058524;69;20046;-70
2022/04/08 04:07:09;;;;;;;;;;;;;;;10.26;65.72;91263.44;2058441;69;20104;-71
2022/04/08 04:09:34;;;;;;;;;;;;;;;10.17;66.88;91263.13;2058497;69;20053;-71
2022/04/08 04:12:00;;;;;;;;;;;;;;;10.28;65.54;91264.25;2058539;69;20076;-71
2022/04/08 04:14:25;;;;;;;;;;;;;;;10.21;66.19;91261.81;2058504;69;20046;-72
2022/04/08 04:16:50;;;;;;;;;;;;;;;10.14;64.96;91272.84;2058512;69;20514;-70
2022/04/08 04:19:17;;;;;;;;;;;;;;;10.26;65.72;91278.22;2058489;69;20521;-71
2022/04/08 04:21:43;;;;;;;;;;;;;;;10.06;66.63;91292.19;2058403;69;20386;-71
2022/04/08 04:24:08;;;;;;;;;;;;;;;10.26;63.80;91285.94;2058398;69;20494;-70
2022/04/08 04:26:34;;;;;;;;;;;;;;;10.32;64.53;91283.41;2058574;69;20128;-70
2022/04/08 04:28:59;;;;;;;;;;;;;;;10.36;65.09;91294.81;2058482;69;20050;-70
2022/04/08 04:31:26;;;;;;;;;;;;;;;10.12;66.28;91295.25;2058412;69;20046;-70
2022/04/08 04:33:52;;;;;;;;;;;;;;;10.18;66.60;91286.34;2058448;69;20054;-70
2022/04/08 04:36:17;;;;;;;;;;;;;;;10.16;65.92;91286.25;2058450;69;20066;-70
2022/04/08 04:38:43;;;;;;;;;;;;;;;10.30;66.43;91298.09;2058333;69;20053;-71
2022/04/08 04:41:09;;;;;;;;;;;;;;;10.15;64.83;91290.44;2058538;69;20049;-71
2022/04/08 04:43:35;;;;;;;;;;;;;;;10.22;64.72;91297.00;2058428;69;20056;-71
2022/04/08 04:46:03;;;;;;;;;;;;;;;10.18;64.88;91308.84;2058536;69;20077;-71
2022/04/08 04:48:28;;;;;;;;;;;;;;;10.25;64.22;91313.34;2058412;69;20089;-71
2022/04/08 04:50:54;;;;;;;;;;;;;;;10.23;65.34;91313.25;2058519;69;20081;-72
2022/04/08 04:53:20;;;;;;;;;;;;;;;10.00;66.88;91308.09;2058310;69;20489;-72
2022/04/08 04:55:45;;;;;;;;;;;;;;;10.21;65.07;91315.97;2058346;69;20077;-71
2022/04/08 04:58:10;;;;;;;;;;;;;;;10.18;65.58;91323.63;2058474;69;20070;-71
2022/04/08 05:00:36;;;;;;;;;;;;;;;10.12;66.14;91312.09;2058400;69;20046;-70
2022/04/08 05:03:01;;;;;;;;;;;;;;;10.08;64.97;91323.22;2057823;69;20502;-71
2022/04/08 05:05:27;;;;;;;;;;;;;;;10.32;63.50;91334.75;2058465;69;20555;-70
2022/04/08 05:07:52;;;;;;;;;;;;;;;10.28;65.69;91328.94;2058319;69;20097;-71
2022/04/08 05:10:18;;;;;;;;;;;;;;;10.21;65.59;91330.03;2058661;69;20069;-72
2022/04/08 05:12:43;;;;;;;;;;;;;;;10.26;65.10;91331.66;2058800;69;20478;-71
2022/04/08 05:15:12;;;;;;;;;;;;;;;10.08;66.36;91345.72;2058822;69;20097;-71
2022/04/08 05:17:37;;;;;;;;;;;;;;;9.82;67.01;91344.63;2058978;69;20137;-70
2022/04/08 05:20:03;;;;;;;;;;;;;;;10.19;66.88;91346.84;2058222;69;20066;-72
2022/04/08 05:22:29;;;;;;;;;;;;;;;10.32;63.58;91345.28;2058680;69;20077;-71
2022/04/08 05:24:54;;;;;;;;;;;;;;;10.43;64.15;91355.53;2058931;69;20057;-70
2022/04/08 05:27:19;;;;;;;;;;;;;;;10.45;64.56;91354.91;2058706;69;20471;-70
2022/04/08 05:29:45;;;;;;;;;;;;;;;10.41;65.32;91355.47;2058808;69;20056;-70
2022/04/08 05:32:10;;;;;;;;;;;;;;;10.05;65.79;91349.78;2058630;69;20503;-70
2022/04/08 05:34:36;;;;;;;;;;;;;;;10.21;66.36;91351.81;2058000;69;20066;-70
2022/04/08 05:37:01;;;;;;;;;;;;;;;10.42;65.02;91349.19;2058613;69;20050;-69
2022/04/08 05:39:27;;;;;;;;;;;;;;;10.57;64.56;91352.56;2058825;69;20050;-70
2022/04/08 05:41:52;;;;;;;;;;;;;;;10.42;65.61;91363.25;2058777;69;20058;-70
2022/04/08 05:44:17;;;;;;;;;;;;;;;10.55;64.41;91375.72;2058952;69;20062;-70
2022/04/08 05:46:44;;;;;;;;;;;;;;;10.62;63.97;91366.16;2058829;69;20056;-70
2022/04/08 05:49:09;;;;;;;;;;;;;;;10.62;63.49;91368.97;2059078;69;20147;-70
2022/04/08 05:51:35;;;;;;;;;;;;;;;10.67;64.32;91364.22;2058880;69;20050;-70
2022/04/08 05:54:00;;;;;;;;;;;;;;;10.51;65.13;91374.84;2058630;69;20058;-69
2022/04/08 05:56:25;;;;;;;;;;;;;;;10.19;66.86;91384.13;2058970;69;20078;-70
2022/04/08 05:58:51;;;;;;;;;;;;;;;10.36;66.96;91382.00;2058878;69;20050;-72
2022/04/08 06:01:17;;;;;;;;;;;;;;;10.67;62.91;91393.09;2058544;69;20050;-70
2022/04/08 06:03:43;;;;;;;;;;;;;;;10.82;63.32;91391.56;2058721;69;20162;-70
2022/04/08 06:06:08;;;;;;;;;;;;;;;10.68;64.97;91391.00;2058855;69;20132;-70
2022/04/08 06:08:34;;;;;;;;;;;;;;;10.73;66.09;91386.97;2058659;69;20046;-69
2022/04/08 06:10:59;;;;;;;;;;;;;;;10.53;64.63;91383.34;2058178;69;20073;-69
2022/04/08 06:13:26;;;;;;;;;;;;;;;10.94;63.36;91382.84;2058736;69;20050;-70
2022/04/08 06:15:52;;;;;;;;;;;;;;;11.02;66.20;91385.25;2058813;69;20509;-69
2022/04/08 06:18:18;;;;;;;;;;;;;;;11.18;64.24;91375.34;2058710;69;20046;-69
2022/04/08 06:20:44;;;;;;;;;;;;;;;11.32;65.28;91375.13;2058717;69;20491;-69
2022/04/08 06:23:09;;;;;;;;;;;;;;;11.48;63.76;91374.28;2058574;69;20089;-70
2022/04/08 06:25:35;;;;;;;;;;;;;;;11.61;61.25;91371.25;2058648;69;20077;-71
2022/04/08 06:28:03;;;;;;;;;;;;;;;11.56;59.92;91380.22;2058670;69;20565;-70
2022/04/08 06:30:29;;;;;;;;;;;;;;;11.48;60.48;91374.28;2058730;69;20070;-70
2022/04/08 06:32:55;;;;;;;;;;;;;;;11.60;62.09;91375.44;2058675;69;20038;-70
2022/04/08 06:35:20;;;;;;;;;;;;;;;11.68;61.22;91387.00;2058696;69;20473;-71
2022/04/08 06:37:46;;;;;;;;;;;;;;;11.78;61.82;91378.19;2058561;69;20042;-70
2022/04/08 06:40:11;;;;;;;;;;;;;;;11.93;58.01;91370.97;2058496;69;20057;-69
2022/04/08 06:42:38;;;;;;;;;;;;;;;11.88;58.63;91367.28;2058546;69;20050;-69
2022/04/08 06:45:04;;;;;;;;;;;;;;;11.93;58.84;91368.88;2058571;69;20054;-70
2022/04/08 06:47:30;;;;;;;;;;;;;;;12.10;60.48;91375.06;2058633;69;20058;-70
2022/04/08 06:49:55;;;;;;;;;;;;;;;12.14;60.60;91367.47;2058654;69;20502;-70
2022/04/08 06:52:21;;;;;;;;;;;;;;;12.28;59.95;91364.41;2058625;69;20146;-71
2022/04/08 06:54:47;;;;;;;;;;;;;;;12.12;58.42;91361.03;2058670;69;20049;-69
2022/04/08 06:57:12;;;;;;;;;;;;;;;11.90;59.71;91349.69;2058669;69;20506;-71
2022/04/08 06:59:39;;;;;;;;;;;;;;;11.92;58.75;91349.78;2058638;69;20070;-70
2022/04/08 07:02:04;;;;;;;;;;;;;;;12.13;59.85;91348.34;2058643;69;20068;-70
2022/04/08 07:04:30;;;;;;;;;;;;;;;11.96;60.50;91347.09;2058285;69;20155;-70
2022/04/08 07:06:56;;;;;;;;;;;;;;;12.33;58.93;91343.41;2058634;69;20502;-71
2022/04/08 07:09:21;;;;;;;;;;;;;;;12.60;57.17;91335.75;2058646;69;20049;-69
2022/04/08 07:11:47;;;;;;;;;;;;;;;12.43;56.45;91335.25;2058715;69;20042;-69
2022/04/08 07:14:15;;;;;;;;;;;;;;;12.51;55.79;91336.88;2058596;69;20052;-69
2022/04/08 07:16:44;;;;;;;;;;;;;;;12.75;55.08;91336.94;2058663;69;20503;-68
2022/04/08 07:19:12;;;;;;;;;;;;;;;12.70;54.86;91338.91;2058726;69;20141;-69
2022/04/08 07:21:38;;;;;;;;;;;;;;;12.65;54.25;91331.69;2058540;69;20437;-70
2022/04/08 07:24:04;;;;;;;;;;;;;;;12.51;54.16;91319.94;2057994;69;20062;-71
2022/04/08 07:26:29;;;;;;;;;;;;;;;12.93;53.95;91326.91;2058721;69;20409;-71
2022/04/08 07:28:55;;;;;;;;;;;;;;;13.21;54.12;91315.00;2058700;69;20086;-71
2022/04/08 07:31:20;;;;;;;;;;;;;;;13.25;53.79;91311.63;2058472;69;20078;-71
2022/04/08 07:33:46;;;;;;;;;;;;;;;13.12;52.33;91324.63;2058486;69;20046;-71
2022/04/08 07:36:12;;;;;;;;;;;;;;;13.03;52.57;91320.84;2058538;69;20499;-70
2022/04/08 07:38:37;;;;;;;;;;;;;;;13.44;52.51;91316.41;2057922;69;20145;-72
2022/04/08 07:41:03;;;;;;;;;;;;;;;13.37;52.21;91318.31;2058801;69;20050;-71
2022/04/08 07:43:28;;;;;;;;;;;;;;;13.72;52.13;91316.44;2058717;69;20090;-70
2022/04/08 07:45:53;;;;;;;;;;;;;;;13.41;51.89;91307.13;2058078;69;20050;-71
2022/04/08 07:48:19;;;;;;;;;;;;;;;13.77;50.99;91303.88;2058414;69;20054;-70
2022/04/08 07:50:44;;;;;;;;;;;;;;;13.95;50.82;91304.34;2058397;69;20489;-71
2022/04/08 07:53:10;;;;;;;;;;;;;;;14.24;50.14;91297.28;2058401;69;20046;-70
2022/04/08 07:55:35;;;;;;;;;;;;;;;14.61;50.81;91305.97;2058788;69;20116;-72
2022/04/08 07:58:01;;;;;;;;;;;;;;;14.72;50.22;91293.50;2058657;69;20097;-73
2022/04/08 08:00:27;;;;;;;;;;;;;;;15.04;49.69;91302.00;2058636;69;20501;-72
2022/04/08 08:02:53;;;;;;;;;;;;;;;14.65;48.64;91303.25;2058583;69;20437;-70
2022/04/08 08:05:20;;;;;;;;;;;;;;;15.08;47.89;91285.09;2058600;69;20062;-70
2022/04/08 08:07:50;;;;;;;;;;;;;;;14.56;45.86;91285.34;2058400;69;20130;-70
2022/04/08 08:10:29;;;;;;;;;;;;;;;15.28;47.50;91284.81;2058518;69;20046;-71
2022/04/08 08:12:55;;;;;;;;;;;;;;;14.90;45.29;91288.25;2058507;69;20050;-70
2022/04/08 08:15:21;;;;;;;;;;;;;;;15.03;46.57;91282.84;2058575;69;20049;-70
2022/04/08 08:17:47;;;;;;;;;;;;;;;15.41;45.50;91282.94;2058504;69;20430;-70
2022/04/08 08:20:14;;;;;;;;;;;;;;;15.82;45.23;91281.66;2058496;69;20566;-69
2022/04/08 08:22:41;;;;;;;;;;;;;;;15.51;44.68;91285.97;2058392;69;20063;-71
2022/04/08 08:25:07;;;;;;;;;;;;;;;15.23;44.66;91286.13;2058522;69;20057;-71
2022/04/08 08:27:37;;;;;;;;;;;;;;;14.67;44.86;91278.53;2057986;69;20066;-70
2022/04/08 08:30:03;;;;;;;;;;;;;;;15.43;44.89;91282.97;2058476;69;20066;-70
2022/04/08 08:32:28;;;;;;;;;;;;;;;15.16;44.14;91278.88;2058457;69;20502;-70
2022/04/08 08:34:54;;;;;;;;;;;;;;;14.94;44.55;91276.28;2058472;69;20141;-71
2022/04/08 08:37:19;;;;;;;;;;;;;;;14.81;44.69;91275.31;2058369;69;20395;-71
2022/04/08 08:39:45;;;;;;;;;;;;;;;15.09;44.80;91268.81;2058452;69;20054;-69
2022/04/08 08:42:11;;;;;;;;;;;;;;;15.40;43.64;91273.00;2058434;69;20050;-70
2022/04/08 08:44:36;;;;;;;;;;;;;;;15.47;43.15;91260.38;2058370;69;20112;-71
2022/04/08 08:47:03;;;;;;;;;;;;;;;15.34;43.68;91261.53;2058420;69;20058;-70
2022/04/08 08:49:31;;;;;;;;;;;;;;;15.87;44.98;91266.13;2058490;69;20085;-70
2022/04/08 08:51:58;;;;;;;;;;;;;;;16.36;44.29;91255.63;2058283;69;20145;-69
2022/04/08 08:54:23;;;;;;;;;;;;;;;16.15;42.93;91239.66;2057860;69;20064;-72
2022/04/08 08:56:49;;;;;;;;;;;;;;;16.76;43.98;91237.81;2058440;69;20050;-70
2022/04/08 08:59:17;;;;;;;;;;;;;;;16.73;42.51;91236.34;2058547;69;20058;-70
2022/04/08 09:01:42;;;;;;;;;;;;;;;16.21;42.11;91237.63;2058407;69;20042;-69
2022/04/08 09:04:08;;;;;;;;;;;;;;;16.51;42.57;91231.72;2058387;69;20069;-70
2022/04/08 09:06:43;;;;;;;;;;;;;;;16.58;41.99;91220.47;2058522;69;20578;-71
2022/04/08 09:09:11;;;;;;;;;;;;;;;16.30;43.19;91232.81;2057784;69;20072;-71
2022/04/08 09:11:36;;;;;;;;;;;;;;;16.63;41.70;91227.63;2058360;69;20057;-71
2022/04/08 09:14:03;;;;;;;;;;;;;;;16.58;41.87;91220.47;2057824;69;20046;-72
2022/04/08 09:16:29;;;;;;;;;;;;;;;17.31;41.78;91226.47;2058393;69;20066;-72
2022/04/08 09:18:55;;;;;;;;;;;;;;;17.57;39.25;91206.16;2058485;69;20061;-72
2022/04/08 09:21:24;;;;;;;;;;;;;;;17.89;40.77;91220.03;2058367;69;20065;-70
2022/04/08 09:23:50;;;;;;;;;;;;;;;18.47;41.05;91214.16;2058281;69;20056;-72
2022/04/08 09:26:16;;;;;;;;;;;;;;;18.60;40.29;91205.69;2058471;69;20512;-70
2022/04/08 09:28:41;;;;;;;;;;;;;;;18.71;39.34;91205.13;2057749;69;20046;-72
2022/04/08 09:31:15;;;;;;;;;;;;;;;19.04;39.69;91191.06;2058320;69;20059;-71
2022/04/08 09:33:46;;;;;;;;;;;;;;;19.45;39.05;91191.97;2058354;69;20050;-72
2022/04/08 09:36:12;;;;;;;;;;;;;;;19.61;38.47;91188.50;2057817;69;20053;-72
2022/04/08 09:38:47;;;;;;;;;;;;;;;20.02;37.17;91182.88;2058238;69;20099;-72
2022/04/08 09:41:12;;;;;;;;;;;;;;;19.92;35.73;91180.72;2058317;69;20058;-71
2022/04/08 09:43:39;;;;;;;;;;;;;;;20.15;35.66;91187.19;2058402;69;20077;-70
2022/04/08 09:46:15;;;;;;;;;;;;;;;20.20;36.50;91176.47;2058317;69;20050;-71
2022/04/08 09:48:41;;;;;;;;;;;;;;;19.92;35.17;91180.00;2058333;69;20062;-71
2022/04/08 09:51:09;;;;;;;;;;;;;;;19.42;36.04;91170.53;2057683;69;20170;-71
2022/04/08 09:53:36;;;;;;;;;;;;;;;19.87;34.65;91176.41;2058160;69;20115;-70
2022/04/08 09:56:03;;;;;;;;;;;;;;;20.48;36.22;91172.94;2058780;69;20042;-70
2022/04/08 09:58:31;;;;;;;;;;;;;;;20.28;35.43;91171.47;2058761;69;20081;-69
2022/04/08 10:00:57;;;;;;;;;;;;;;;19.83;35.43;91175.69;2058808;69;20053;-71
2022/04/08 10:03:23;;;;;;;;;;;;;;;20.33;34.85;91175.06;2058791;69;20046;-71
2022/04/08 10:05:48;;;;;;;;;;;;;;;19.86;36.18;91165.72;2058878;69;20128;-71
2022/04/08 10:08:14;;;;;;;;;;;;;;;20.18;35.83;91177.19;2058597;69;20046;-71
2022/04/08 10:10:51;;;;;;;;;;;;;;;20.12;36.29;91177.19;2058504;69;20145;-69
2022/04/08 10:13:37;;;;;;;;;;;;;;;20.21;35.62;91169.34;2058108;69;20077;-72
2022/04/08 10:16:09;;;;;;;;;;;;;;;20.46;36.09;91150.75;2058471;69;20061;-72
2022/04/08 10:18:36;;;;;;;;;;;;;;;20.70;34.44;91137.91;2058738;69;20050;-69
2022/04/08 10:21:02;;;;;;;;;;;;;;;20.61;35.73;91140.06;2058645;69;20061;-72
2022/04/08 10:23:37;;;;;;;;;;;;;;;20.79;34.12;91139.31;2058584;69;20050;-69
2022/04/08 10:26:04;;;;;;;;;;;;;;;21.08;33.61;91130.69;2058619;69;20049;-70
2022/04/08 10:28:36;;;;;;;;;;;;;;;19.93;36.25;91136.47;2058742;69;20441;-70
2022/04/08 10:31:02;;;;;;;;;;;;;;;21.38;34.68;91124.16;2058688;69;20077;-68
2022/04/08 10:33:28;;;;;;;;;;;;;;;21.87;34.08;91118.91;2058673;69;20422;-69
2022/04/08 10:36:01;;;;;;;;;;;;;;;20.98;34.07;91108.53;2058179;69;20058;-73
2022/04/08 10:38:37;;;;;;;;;;;;;;;21.55;33.30;91114.06;2057911;69;20399;-71
2022/04/08 10:41:08;;;;;;;;;;;;;;;21.57;33.91;91111.19;2058516;69;20066;-70
2022/04/08 10:43:48;;;;;;;;;;;;;;;20.75;34.39;91107.88;2058529;69;20058;-72
2022/04/08 10:46:26;;;;;;;;;;;;;;;19.91;34.33;91107.91;2056451;69;20109;-69
2022/04/08 10:48:55;;;;;;;;;;;;;;;20.01;35.84;91113.63;2058239;69;20133;-70
2022/04/08 10:51:20;;;;;;;;;;;;;;;19.75;35.51;91108.59;2058613;69;20117;-69
2022/04/08 10:53:46;;;;;;;;;;;;;;;20.63;34.93;91102.19;2058589;69;20058;-69
2022/04/08 10:56:16;;;;;;;;;;;;;;;20.62;35.27;91110.06;2056751;69;20415;-68
2022/04/08 10:58:46;;;;;;;;;;;;;;;19.51;35.07;91097.81;2055058;69;20098;-74
2022/04/08 11:01:14;;;;;;;;;;;;;;;20.63;34.82;91082.19;2055214;69;20053;-72
2022/04/08 11:03:46;;;;;;;;;;;;;;;19.95;34.35;91082.22;2055184;69;20498;-74
2022/04/08 11:06:12;;;;;;;;;;;;;;;20.58;34.89;91092.22;2055079;69;20050;-73
2022/04/08 11:08:37;;;;;;;;;;;;;;;20.39;34.21;91085.75;2055051;69;20120;-74
2022/04/08 11:11:03;;;;;;;;;;;;;;;21.28;34.59;91074.09;2055233;69;20061;-75
2022/04/08 11:13:28;;;;;;;;;;;;;;;21.57;33.86;91076.81;2054373;69;20457;-72
2022/04/08 11:15:54;;;;;;;;;;;;;;;23.18;32.36;91074.78;2055037;69;20050;-75
2022/04/08 11:18:19;;;;;;;;;;;;;;;22.44;32.51;91069.78;2055080;69;20045;-75
2022/04/08 11:20:49;;;;;;;;;;;;;;;22.57;31.99;91058.91;2054815;69;20058;-75
2022/04/08 11:23:14;;;;;;;;;;;;;;;21.59;33.01;91047.50;2055075;69;20076;-69
2022/04/08 11:25:40;;;;;;;;;;;;;;;24.68;29.69;91045.34;2055201;69;20058;-69
2022/04/08 11:28:07;;;;;;;;;;;;;;;25.61;27.97;91039.94;2055172;70;20058;-71
2022/04/08 11:30:42;;;;;;;;;;;;;;;25.08;30.01;91024.47;2055223;70;20054;-71
2022/04/08 11:33:14;;;;;;;;;;;;;;;24.67;28.80;91027.38;2054676;70;20158;-71
2022/04/08 11:35:40;;;;;;;;;;;;;;;22.86;31.02;91033.50;2055137;70;20058;-70
2022/04/08 11:38:12;;;;;;;;;;;;;;;23.02;32.00;91035.50;2054986;69;20049;-72
2022/04/08 11:40:38;;;;;;;;;;;;;;;22.97;32.13;91023.38;2055224;69;20160;-71
2022/04/08 11:43:03;;;;;;;;;;;;;;;24.00;29.94;91014.09;2054496;70;20078;-70
2022/04/08 11:45:29;;;;;;;;;;;;;;;22.70;30.96;91014.31;2054726;69;20082;-69
2022/04/08 11:47:55;;;;;;;;;;;;;;;23.73;29.34;91002.28;2054933;69;20104;-69
2022/04/08 11:50:24;;;;;;;;;;;;;;;22.80;30.86;90997.00;2055007;70;20055;-70
2022/04/08 11:52:57;;;;;;;;;;;;;;;23.34;29.79;90985.59;2054777;69;20054;-72
2022/04/08 11:55:26;;;;;;;;;;;;;;;27.24;27.48;90981.19;2053698;69;20142;-70
2022/04/08 11:57:52;;;;;;;;;;;;;;;27.24;26.97;90980.47;2054177;69;20069;-73
2022/04/08 12:00:23;;;;;;;;;;;;;;;29.00;25.58;90975.69;2054931;69;20066;-75
2022/04/08 12:02:49;;;;;;;;;;;;;;;29.60;24.42;90967.00;2054895;69;20272;-72
2022/04/08 12:05:30;;;;;;;;;;;;;;;27.27;24.26;90942.09;2055187;69;20201;-70
2022/04/08 12:07:57;;;;;;;;;;;;;;;27.32;25.47;90945.59;2055017;70;20509;-70
2022/04/08 12:10:23;;;;;;;;;;;;;;;27.67;24.59;90935.84;2055088;69;20117;-69
2022/04/08 12:12:49;;;;;;;;;;;;;;;29.21;24.24;90930.03;2054958;69;20090;-69
2022/04/08 12:15:15;;;;;;;;;;;;;;;29.21;23.20;90920.63;2055143;69;20487;-69
2022/04/08 12:17:42;;;;;;;;;;;;;;;30.04;23.66;90911.66;2055087;70;20058;-70
2022/04/08 12:20:20;;;;;;;;;;;;;;;28.67;23.88;90900.81;2055048;69;20050;-70
2022/04/08 12:22:47;;;;;;;;;;;;;;;30.05;23.29;90886.25;2055013;69;20043;-70
2022/04/08 12:25:13;;;;;;;;;;;;;;;29.52;23.41;90880.34;2055094;69;20530;-73
2022/04/08 12:27:39;;;;;;;;;;;;;;;30.29;23.68;90882.38;2055136;70;20066;-70
2022/04/08 12:30:08;;;;;;;;;;;;;;;27.45;25.15;90873.72;2054595;69;20514;-73
2022/04/08 12:32:35;;;;;;;;;;;;;;;27.39;25.15;90868.09;2054417;69;20052;-72
2022/04/08 12:35:01;;;;;;;;;;;;;;;25.19;27.35;90857.97;2054494;69;20066;-71
2022/04/08 12:37:27;;;;;;;;;;;;;;;22.69;30.64;90855.19;2053940;69;20061;-70
2022/04/08 12:39:52;;;;;;;;;;;;;;;23.76;29.44;90843.53;2053894;70;20054;-70
2022/04/08 12:42:18;;;;;;;;;;;;;;;23.03;30.64;90830.34;2054330;69;20073;-69
2022/04/08 12:44:43;;;;;;;;;;;;;;;22.49;30.70;90832.50;2053578;70;20051;-70